Sarapul, Russia
Current Conditions -  °F | °C
As of 4:00 AM on Thursday 29 Jan 2015 (Local Time) from UWKE Reporting Station
Blowing Snow Blowing Snow  
Wind Chill: -12°   Ceiling: 10000
Heat Index:   Visibility: 6mi
Dew Point: -6°   Wind: 13mph
Humidity: 61%   Direction: 200°SSW
Pressure: 30.12"   Gusts: 20mph
Location:  56.47°N, 53.8°E
Report Text: UWKE 290000Z 20006G09MPS 9999 DRSN OVC100 M15/M21 Q1020 NOSIGRMK QFE748/0997 21410560
Loading
Personal Weather Stations






























Interactive Weather Map New forecast layout! Learn more

10-Day Weather Forecast

Advertisements
Track Severe Weather on mobile